Onefour Automatic Weather Reporting System

CWOE · 蒙大拿州, 加拿大

使用的METAR站距离机场44 NM。
罗盘
风向 的 风向 270°
风: 10 kt, 3 beaufort

添加一条跑道以查看侧风和逆风信息。

添置 跑道
0 ft 1.000 2.000 3.000 4.000 5.000
没有云
METAR KHVR 240353Z AUTO 27010KT 10SM CLR 25/02 A2967 RMK AO2 SLP024 T02500022

METAR Onefour Automatic Weather Reporting System - CWOE

Onefour Automatic Weather Reporting System是,加拿大中的未知。 该机场位于纬度49,11667和经度-110,46667。 本场的ICAO机场代码为CWOE。 机场在Salt Lake FIR中。

该航空气象观测是针对Havre City-County Airport在2024年6月23日 21:53, 当地时间进行的。

机场观察

风向为270°,速度为10 kt。

可见度为10 mi。

有没有云。 没有观察到天花板。

温度和风寒是25 °C。 露点为2 °C,相对湿度为22%。 海平面上的气压为29,67 inHg (QNH)。

白天

今天,太阳从05:18升起,在21:30降落。 这适用于Onefour Automatic Weather Reporting System,世界夏令时可能有所不同。 当地时间与世界标准时间之间的时差为-6 小时。 夏令时目前正在进行中。

公司介绍

我们没有关于这个机场的公司信息。

体会

到Vliegles.nl去找飞行课程,跳伞和其他飞行体验。 浏览页面,了解Onefour Automatic Weather Reporting System附近所有可用的活动。 你也可以使用搜索功能来寻找你所在地附近的特定飞行课程、跳伞或其他飞行体验。

乌云

- CLR 没有云

温度 & 天气

温度 25,0 °C
露点 2,2 °C
相对湿度 22%
Kp-index 1 (0-9)

评论

AO2自动气象站,可确定降水类型
SLP024海平面压力为29,60 inHg (29,60 inHg)
T02500022温度为25,0 °C (77,0 °F),露点为2,2 °C (36,0 °F)

白天

日出
05:18 (6:32)
中午
13:21
日落
21:25

小工具

你想在你的网站上有一个关于Onefour Automatic Weather Reporting System的当前航空天气(METAR)的小部件吗?

显示HTML代码
报告变更